Etusivu
METAR-TAF:

METAR-TAF

Lentoasemat :

Damaskos, Syyria

Damaskoksen kansainvälinen lentoasema

Leveyspiiri: 33-25N, Pituuspiiri: 036-31E, korkeus merenpinnasta: 608 m

Tämänhetkinen sää

Tämä raportti tehtiin 19 minuuttia sitten, kello 07.00 UTC
Tuuli 6 kn lounaasta
Lämpötila 24°C
Kosteus 34%
Ilmanpaine 1013 hPa
Näkyvyys 10 km tai enemmän
ei pilviä alle 1500 m:ssä eikä cumulonimbus-pilviä

METAR: OSDI 260700Z 23006KT CAVOK 24/07 Q1013

Aika: 10:19 (07:19 UTC)

Sääennuste

Tämä raportti tehtiin 3 tuntia ja 19 minuuttia sitten, kello 04.00 UTC
Ennuste voimassa 26. päivästä klo 06 UTC - 27. päivään klo 12 UTC
Tuuli 10 kn lounaasta
Näkyvyys 10 km tai enemmän
ei pilviä alle 1500 m:ssä eikä cumulonimbus-pilviä
Ajoittain
26. päivästä klo 09 UTC - 26. päivään klo 18 UTC
Tuuli 10 kn lännestä/lounaasta puuskistuen 20 kn:hen
Näkyvyys 10 km tai enemmän
Muutamia pilviä 3000 ft:n korkeudessa

TAF: OSDI 260400Z 2606/2712 22010KT CAVOK TEMPO 2609/2618 24010G20KT 9999 FEW030

Säähavainnot ja -ennusteet yli 4000 lentoasemalta (METAR- ja TAF-raportit).

Käytössä olevat sääasemat on merkitty karttaan keltaisilla ja punaisilla pisteillä.

Aseta hiiri pisteen päälle nähdäksesi sääaseman nimen.

Klikkaa sitten nähdäksesi säähavainnot ja -ennusteet.

Kartan vaihtaminen: klikkaa mustalla rastilla varustettuja vihreitä pisteitä, niin voit zoomata sisään; viivalla varustettua vihreää pistettä, niin voit zoomata ulos tai vihreitä nuolia, niin pääset viereisille kartoille.


METAR-TAF: